createdAt,value
2023-01-29T00:01:36.794Z,5.15
2023-01-29T00:04:06.766Z,5.18
2023-01-29T00:06:36.915Z,5.17
2023-01-29T00:09:06.605Z,5.16
2023-01-29T00:16:36.830Z,5.21
2023-01-29T00:19:06.595Z,5.18
2023-01-29T00:21:36.544Z,5.21
2023-01-29T00:24:07.009Z,5.20
2023-01-29T00:26:38.069Z,5.15
2023-01-29T00:29:07.241Z,5.20
2023-01-29T00:31:36.711Z,5.24
2023-01-29T00:36:36.807Z,5.23
2023-01-29T00:39:10.109Z,5.25
2023-01-29T00:41:47.427Z,5.19
2023-01-29T00:44:16.815Z,5.24
2023-01-29T00:46:37.381Z,5.26
2023-01-29T00:49:08.008Z,5.29
2023-01-29T00:51:37.925Z,5.27
2023-01-29T00:56:37.177Z,5.26
2023-01-29T00:59:06.604Z,5.27
2023-01-29T01:01:46.766Z,5.29
2023-01-29T01:04:08.789Z,5.28
2023-01-29T01:06:37.040Z,5.29
2023-01-29T01:09:18.423Z,5.32
2023-01-29T01:11:36.774Z,5.33
2023-01-29T01:14:06.606Z,5.36
2023-01-29T01:19:06.757Z,5.38
2023-01-29T01:26:37.008Z,5.40
2023-01-29T01:29:06.750Z,5.41
2023-01-29T01:31:36.952Z,5.42
2023-01-29T01:34:06.874Z,5.43
2023-01-29T01:36:36.577Z,5.45
2023-01-29T01:39:07.090Z,5.41
2023-01-29T01:41:36.595Z,5.44
2023-01-29T01:44:06.901Z,5.47
2023-01-29T01:46:37.305Z,5.45
2023-01-29T01:49:11.012Z,5.44
2023-01-29T01:51:41.441Z,5.45
2023-01-29T01:54:09.454Z,5.44
2023-01-29T01:59:11.267Z,5.40
2023-01-29T02:01:40.414Z,5.42
2023-01-29T02:04:20.086Z,5.40
2023-01-29T02:06:49.747Z,5.42
2023-01-29T02:11:36.654Z,5.44
2023-01-29T02:14:07.149Z,5.46
2023-01-29T02:16:37.424Z,5.45
2023-01-29T02:19:15.890Z,5.48
2023-01-29T02:21:51.762Z,5.49
2023-01-29T02:24:26.493Z,5.50
2023-01-29T02:29:22.690Z,5.49
2023-01-29T02:36:44.790Z,5.45
2023-01-29T02:39:16.402Z,5.47
2023-01-29T02:49:15.695Z,5.49
2023-01-29T02:51:43.332Z,5.48
2023-01-29T02:54:22.855Z,5.47
2023-01-29T02:56:43.348Z,5.49
2023-01-29T02:59:11.218Z,5.50
2023-01-29T03:04:11.680Z,5.46
2023-01-29T03:06:44.478Z,5.45
2023-01-29T03:09:12.123Z,5.44
2023-01-29T03:11:41.931Z,5.45
2023-01-29T03:14:12.671Z,5.34
2023-01-29T03:16:41.855Z,5.35
2023-01-29T03:19:11.422Z,5.34
2023-01-29T03:21:51.863Z,5.54
2023-01-29T03:24:20.145Z,5.61
2023-01-29T03:26:46.957Z,5.64
2023-01-29T03:29:18.737Z,5.63
2023-01-29T03:31:46.984Z,5.64
2023-01-29T03:36:45.011Z,5.52
2023-01-29T03:39:10.441Z,5.55
2023-01-29T03:41:42.672Z,5.54
2023-01-29T03:44:15.417Z,5.57
2023-01-29T03:49:14.749Z,5.58
2023-01-29T03:51:48.397Z,5.60
2023-01-29T03:54:14.748Z,5.58
2023-01-29T03:59:17.748Z,5.57
2023-01-29T04:01:44.033Z,5.58
2023-01-29T04:04:13.504Z,5.54
2023-01-29T04:06:40.522Z,5.48
2023-01-29T04:09:11.766Z,5.54
2023-01-29T04:11:42.110Z,5.51
2023-01-29T04:14:07.363Z,5.44
2023-01-29T04:16:41.003Z,5.46
2023-01-29T04:19:07.487Z,5.54
2023-01-29T04:21:36.767Z,5.53
2023-01-29T04:24:08.012Z,5.49
2023-01-29T04:26:55.235Z,5.54
2023-01-29T04:29:21.055Z,5.56
2023-01-29T04:31:44.632Z,5.50
2023-01-29T04:34:18.716Z,5.48
2023-01-29T04:36:43.731Z,5.38
2023-01-29T04:39:16.450Z,5.46
2023-01-29T04:41:47.089Z,5.53
2023-01-29T04:44:14.800Z,5.55
2023-01-29T04:46:47.253Z,5.57
2023-01-29T04:49:16.939Z,5.60
2023-01-29T04:51:46.475Z,5.58
2023-01-29T04:54:15.366Z,5.56
2023-01-29T04:56:44.229Z,5.53
2023-01-29T04:59:13.694Z,5.60
2023-01-29T05:04:12.503Z,5.57
2023-01-29T05:06:37.560Z,5.49
2023-01-29T05:09:08.361Z,5.52
2023-01-29T05:11:37.076Z,5.56
2023-01-29T05:14:11.001Z,5.49
2023-01-29T05:16:42.215Z,5.46
2023-01-29T05:19:06.989Z,5.47
2023-01-29T05:21:41.055Z,5.49
2023-01-29T05:24:09.039Z,5.54
2023-01-29T05:26:47.505Z,5.49
2023-01-29T05:31:37.031Z,5.48
2023-01-29T05:34:06.754Z,5.51
2023-01-29T05:36:36.633Z,5.54
2023-01-29T05:39:06.933Z,5.50
2023-01-29T05:41:36.682Z,5.52
2023-01-29T05:44:06.691Z,5.44
2023-01-29T05:46:37.282Z,5.42
2023-01-29T05:49:06.649Z,5.47
2023-01-29T05:51:37.180Z,5.43
2023-01-29T05:54:06.860Z,5.44
2023-01-29T05:56:36.809Z,5.39
2023-01-29T05:59:07.071Z,5.29
2023-01-29T06:01:36.851Z,5.33
2023-01-29T06:04:06.731Z,5.31
2023-01-29T06:06:37.226Z,5.21
2023-01-29T06:11:38.611Z,5.17
2023-01-29T06:14:06.828Z,5.13
2023-01-29T06:19:06.939Z,5.14
2023-01-29T06:24:08.111Z,5.15
2023-01-29T06:26:36.731Z,5.12
2023-01-29T06:29:06.664Z,5.03
2023-01-29T06:31:39.142Z,5.07
2023-01-29T06:34:07.378Z,5.03
2023-01-29T06:36:36.851Z,5.13
2023-01-29T06:39:07.032Z,5.18
2023-01-29T06:41:36.885Z,5.10
2023-01-29T06:44:06.890Z,5.04
2023-01-29T06:46:37.240Z,5.10
2023-01-29T06:49:06.699Z,5.09
2023-01-29T06:51:36.880Z,5.17
2023-01-29T06:54:07.646Z,5.13
2023-01-29T06:56:37.807Z,5.09
2023-01-29T06:59:06.678Z,5.17
2023-01-29T07:01:40.357Z,5.09
2023-01-29T07:04:06.901Z,5.15
2023-01-29T07:06:37.018Z,5.13
2023-01-29T07:09:07.006Z,5.04
2023-01-29T07:11:37.001Z,4.97
2023-01-29T07:14:07.603Z,4.96
2023-01-29T07:16:36.726Z,5.06
2023-01-29T07:19:07.335Z,5.01
2023-01-29T07:21:37.339Z,5.03
2023-01-29T07:26:36.874Z,5.06
2023-01-29T07:29:06.910Z,5.05
2023-01-29T07:31:37.180Z,4.96
2023-01-29T07:34:06.720Z,5.03
2023-01-29T07:36:36.896Z,4.97
2023-01-29T07:39:06.934Z,4.90
2023-01-29T07:41:37.739Z,4.99
2023-01-29T07:44:06.700Z,4.94
2023-01-29T07:46:36.696Z,5.02
2023-01-29T07:51:37.058Z,5.03
2023-01-29T07:54:07.170Z,5.04
2023-01-29T07:56:36.661Z,4.99
2023-01-29T07:59:06.963Z,4.95
2023-01-29T08:01:36.711Z,4.97
2023-01-29T08:04:06.836Z,5.08
2023-01-29T08:06:36.901Z,5.11
2023-01-29T08:09:07.818Z,5.16
2023-01-29T08:11:36.722Z,5.14
2023-01-29T08:14:08.421Z,5.11
2023-01-29T08:16:36.874Z,5.18
2023-01-29T08:19:07.071Z,5.15
2023-01-29T08:21:36.723Z,5.12
2023-01-29T08:24:06.853Z,5.16
2023-01-29T08:26:36.956Z,5.26
2023-01-29T08:29:07.053Z,5.28
2023-01-29T08:31:36.846Z,5.23
2023-01-29T08:34:07.131Z,5.12
2023-01-29T08:36:36.785Z,5.19
2023-01-29T08:39:06.907Z,5.25
2023-01-29T08:44:07.063Z,5.23
2023-01-29T08:46:39.674Z,5.22
2023-01-29T08:49:08.451Z,5.29
2023-01-29T08:51:36.708Z,5.18
2023-01-29T08:54:06.726Z,5.22
2023-01-29T08:56:37.492Z,5.29
2023-01-29T08:59:06.731Z,5.32
2023-01-29T09:01:36.907Z,5.26
2023-01-29T09:04:07.099Z,5.28
2023-01-29T09:06:36.709Z,5.27
2023-01-29T09:09:07.398Z,5.42
2023-01-29T09:11:37.488Z,5.38
2023-01-29T09:14:06.713Z,5.36
2023-01-29T09:16:37.223Z,5.29
2023-01-29T09:19:07.367Z,5.40
2023-01-29T09:21:36.996Z,5.34
2023-01-29T09:24:07.050Z,5.38
2023-01-29T09:26:38.699Z,5.47
2023-01-29T09:29:08.755Z,5.42
2023-01-29T09:31:37.003Z,5.45
2023-01-29T09:36:36.951Z,5.46
2023-01-29T09:39:07.907Z,5.37
2023-01-29T09:44:18.957Z,5.45
2023-01-29T09:46:41.228Z,5.41
2023-01-29T09:49:13.782Z,5.49
2023-01-29T09:51:40.864Z,5.54
2023-01-29T09:54:17.335Z,5.48
2023-01-29T09:56:37.007Z,5.38
2023-01-29T09:59:11.096Z,5.41
2023-01-29T10:01:46.651Z,5.56
2023-01-29T10:04:26.031Z,5.52
2023-01-29T10:06:49.817Z,5.55
2023-01-29T10:09:27.178Z,5.59
2023-01-29T10:11:48.175Z,5.64
2023-01-29T10:14:16.123Z,5.58
2023-01-29T10:16:48.843Z,5.69
2023-01-29T10:21:52.003Z,5.72
2023-01-29T10:24:18.509Z,5.74
2023-01-29T10:26:39.532Z,5.71
2023-01-29T10:29:07.845Z,5.69
2023-01-29T10:31:39.381Z,5.75
2023-01-29T10:34:13.207Z,5.76
2023-01-29T10:36:41.813Z,5.80
2023-01-29T10:39:15.661Z,5.92
2023-01-29T10:41:53.105Z,5.93
2023-01-29T10:44:20.221Z,5.94
2023-01-29T10:46:51.693Z,5.92
2023-01-29T10:49:22.574Z,5.94
2023-01-29T10:51:51.256Z,5.95
2023-01-29T10:54:23.597Z,5.84
2023-01-29T10:56:50.174Z,5.93
2023-01-29T10:59:20.887Z,5.85
2023-01-29T11:01:37.119Z,5.99
2023-01-29T11:04:10.965Z,5.98
2023-01-29T11:06:37.048Z,5.97
2023-01-29T11:09:18.051Z,5.91
2023-01-29T11:11:44.106Z,5.88
2023-01-29T11:14:11.823Z,6.04
2023-01-29T11:16:42.338Z,6.17
2023-01-29T11:19:06.932Z,6.05
2023-01-29T11:21:50.440Z,6.11
2023-01-29T11:24:11.696Z,6.07
2023-01-29T11:26:41.718Z,6.11
2023-01-29T11:29:26.753Z,6.10
2023-01-29T11:31:37.816Z,6.04
2023-01-29T11:34:17.490Z,6.05
2023-01-29T11:36:39.026Z,6.11
2023-01-29T11:39:16.505Z,6.25
2023-01-29T11:44:17.671Z,6.17
2023-01-29T11:46:38.878Z,6.26
2023-01-29T11:49:22.557Z,6.17
2023-01-29T11:51:38.355Z,6.33
2023-01-29T11:54:16.276Z,6.36
2023-01-29T11:56:41.993Z,6.47
2023-01-29T11:59:24.106Z,6.39
2023-01-29T12:01:39.623Z,6.35
2023-01-29T12:04:18.408Z,6.48
2023-01-29T12:06:43.595Z,6.45
2023-01-29T12:09:12.738Z,6.44
2023-01-29T12:11:37.853Z,6.48
2023-01-29T12:14:23.703Z,6.45
2023-01-29T12:16:43.314Z,6.42
2023-01-29T12:19:14.034Z,6.50
2023-01-29T12:21:46.183Z,6.52
2023-01-29T12:24:18.293Z,6.40
2023-01-29T12:26:43.683Z,6.42
2023-01-29T12:29:21.479Z,6.41
2023-01-29T12:31:43.070Z,6.42
2023-01-29T12:34:17.861Z,6.31
2023-01-29T12:36:42.034Z,6.34
2023-01-29T12:39:08.772Z,6.42
2023-01-29T12:41:44.562Z,6.48
2023-01-29T12:44:13.615Z,6.41
2023-01-29T12:46:40.664Z,6.40
2023-01-29T12:49:14.380Z,6.39
2023-01-29T12:51:44.195Z,6.54
2023-01-29T12:54:09.457Z,6.55
2023-01-29T12:56:42.730Z,6.54
2023-01-29T12:59:15.961Z,6.60
2023-01-29T13:01:42.246Z,6.50
2023-01-29T13:04:14.101Z,6.54
2023-01-29T13:06:41.859Z,6.52
2023-01-29T13:09:12.185Z,6.50
2023-01-29T13:11:40.032Z,6.69
2023-01-29T13:14:18.140Z,6.60
2023-01-29T13:16:41.809Z,6.65
2023-01-29T13:19:19.864Z,6.67
2023-01-29T13:21:39.946Z,6.77
2023-01-29T13:24:13.873Z,6.84
2023-01-29T13:26:37.302Z,6.74
2023-01-29T13:29:20.781Z,6.72
2023-01-29T13:31:40.121Z,6.82
2023-01-29T13:34:13.596Z,6.88
2023-01-29T13:36:42.162Z,6.75
2023-01-29T13:39:15.887Z,6.78
2023-01-29T13:41:40.716Z,6.72
2023-01-29T13:44:17.670Z,6.69
2023-01-29T13:46:40.148Z,6.73
2023-01-29T13:51:37.865Z,6.71
2023-01-29T13:54:16.771Z,6.75
2023-01-29T13:56:44.835Z,6.73
2023-01-29T13:59:21.305Z,6.68
2023-01-29T14:01:57.146Z,6.66
2023-01-29T14:04:24.405Z,6.64
2023-01-29T14:06:47.167Z,6.63
2023-01-29T14:09:26.734Z,6.70
2023-01-29T14:11:36.886Z,6.79
2023-01-29T14:14:28.335Z,6.65
2023-01-29T14:16:37.059Z,6.71
2023-01-29T14:19:17.822Z,6.73
2023-01-29T14:21:38.097Z,6.54
2023-01-29T14:24:15.679Z,6.67
2023-01-29T14:26:44.386Z,6.72
2023-01-29T14:29:25.540Z,6.74
2023-01-29T14:31:41.580Z,6.81
2023-01-29T14:34:15.867Z,6.66
2023-01-29T14:36:39.550Z,6.77
2023-01-29T14:39:20.185Z,6.79
2023-01-29T14:41:37.401Z,6.65
2023-01-29T14:44:26.890Z,6.77
2023-01-29T14:46:43.394Z,6.64
2023-01-29T14:49:07.908Z,6.65
2023-01-29T14:51:42.402Z,6.48
2023-01-29T14:54:21.749Z,6.64
2023-01-29T14:56:43.598Z,6.66
2023-01-29T14:59:15.681Z,6.58
2023-01-29T15:01:38.696Z,6.53
2023-01-29T15:04:17.235Z,6.36
2023-01-29T15:06:42.804Z,6.49
2023-01-29T15:09:13.682Z,6.57
2023-01-29T15:11:47.815Z,6.62
2023-01-29T15:14:24.612Z,6.65
2023-01-29T15:16:47.665Z,6.68
2023-01-29T15:19:14.853Z,6.63
2023-01-29T15:21:36.857Z,6.69
2023-01-29T15:24:12.737Z,6.77
2023-01-29T15:26:37.008Z,6.79
2023-01-29T15:29:21.989Z,6.83
2023-01-29T15:31:41.460Z,6.93
2023-01-29T15:34:07.034Z,6.85
2023-01-29T15:36:38.885Z,6.90
2023-01-29T15:39:15.229Z,6.84
2023-01-29T15:41:37.729Z,6.90
2023-01-29T15:46:39.949Z,6.78
2023-01-29T15:49:10.167Z,6.79
2023-01-29T15:51:38.098Z,6.85
2023-01-29T15:54:13.515Z,6.93
2023-01-29T15:56:39.937Z,6.95
2023-01-29T15:59:14.187Z,6.84
2023-01-29T16:01:36.924Z,6.83
2023-01-29T16:04:13.283Z,6.88
2023-01-29T16:06:40.083Z,6.95
2023-01-29T16:09:07.737Z,6.86
2023-01-29T16:11:37.189Z,6.85
2023-01-29T16:14:08.011Z,6.88
2023-01-29T16:16:36.952Z,6.94
2023-01-29T16:19:19.351Z,6.92
2023-01-29T16:21:42.561Z,6.91
2023-01-29T16:26:41.730Z,6.94
2023-01-29T16:29:10.247Z,6.93
2023-01-29T16:31:38.638Z,6.90
2023-01-29T16:34:09.721Z,6.84
2023-01-29T16:36:43.064Z,6.91
2023-01-29T16:39:17.837Z,6.86
2023-01-29T16:41:37.472Z,6.94
2023-01-29T16:44:27.055Z,6.88
2023-01-29T16:46:44.041Z,6.86
2023-01-29T16:49:26.637Z,6.76
2023-01-29T16:54:11.703Z,6.71
2023-01-29T16:56:38.334Z,6.74
2023-01-29T16:59:17.765Z,6.72
2023-01-29T17:01:36.968Z,6.77
2023-01-29T17:04:12.664Z,6.76
2023-01-29T17:06:39.692Z,6.71
2023-01-29T17:09:07.494Z,6.79
2023-01-29T17:11:40.985Z,6.75
2023-01-29T17:14:08.558Z,6.76
2023-01-29T17:16:49.490Z,6.71
2023-01-29T17:19:16.620Z,6.72
2023-01-29T17:21:36.901Z,6.66
2023-01-29T17:24:07.175Z,6.68
2023-01-29T17:26:37.278Z,6.61
2023-01-29T17:29:12.444Z,6.55
2023-01-29T17:31:37.262Z,6.64
2023-01-29T17:34:11.636Z,6.57
2023-01-29T17:36:37.164Z,6.62
2023-01-29T17:41:38.272Z,6.48
2023-01-29T17:46:37.412Z,6.39
2023-01-29T17:49:18.005Z,6.26
2023-01-29T17:51:36.874Z,6.37
2023-01-29T17:54:07.153Z,6.32
2023-01-29T17:56:37.060Z,6.25
2023-01-29T17:59:13.549Z,6.18
2023-01-29T18:01:36.910Z,6.14
2023-01-29T18:04:08.284Z,6.25
2023-01-29T18:06:37.613Z,6.20
2023-01-29T18:09:07.087Z,6.22
2023-01-29T18:11:37.039Z,6.15
2023-01-29T18:14:13.698Z,6.10
2023-01-29T18:16:37.324Z,6.08
2023-01-29T18:19:13.479Z,5.94
2023-01-29T18:21:36.879Z,6.01
2023-01-29T18:24:07.264Z,6.04
2023-01-29T18:26:36.981Z,6.17
2023-01-29T18:29:07.570Z,6.21
2023-01-29T18:31:36.975Z,6.17
2023-01-29T18:34:07.317Z,6.23
2023-01-29T18:36:37.372Z,6.16
2023-01-29T18:41:37.148Z,6.21
2023-01-29T18:44:07.134Z,6.15
2023-01-29T18:46:37.013Z,6.20
2023-01-29T18:49:07.215Z,6.18
2023-01-29T18:51:37.079Z,6.06
2023-01-29T18:54:11.143Z,6.08
2023-01-29T18:56:36.885Z,5.94
2023-01-29T18:59:07.075Z,6.00
2023-01-29T19:04:07.614Z,6.09
2023-01-29T19:06:37.963Z,6.08
2023-01-29T19:09:07.007Z,6.15
2023-01-29T19:11:37.080Z,6.16
2023-01-29T19:14:06.880Z,6.13
2023-01-29T19:16:37.285Z,6.07
2023-01-29T19:19:07.042Z,6.04
2023-01-29T19:21:37.483Z,6.20
2023-01-29T19:24:09.096Z,6.26
2023-01-29T19:26:37.016Z,6.16
2023-01-29T19:29:09.534Z,6.21
2023-01-29T19:31:37.250Z,6.33
2023-01-29T19:34:08.487Z,6.28
2023-01-29T19:36:37.229Z,6.46
2023-01-29T19:39:06.998Z,6.38
2023-01-29T19:41:37.441Z,6.34
2023-01-29T19:44:07.100Z,6.40
2023-01-29T19:46:38.317Z,6.46
2023-01-29T19:49:06.958Z,6.38
2023-01-29T19:51:37.309Z,6.46
2023-01-29T19:54:08.978Z,6.47
2023-01-29T19:59:06.919Z,6.54
2023-01-29T20:04:07.390Z,6.52
2023-01-29T20:06:37.942Z,6.48
2023-01-29T20:09:07.669Z,6.50
2023-01-29T20:11:36.959Z,6.51
2023-01-29T20:14:06.963Z,6.55
2023-01-29T20:16:37.599Z,6.53
2023-01-29T20:19:14.172Z,6.63
2023-01-29T20:21:38.425Z,6.53
2023-01-29T20:24:10.544Z,6.46
2023-01-29T20:26:37.051Z,6.38
2023-01-29T20:29:07.176Z,6.43
2023-01-29T20:31:37.395Z,6.44
2023-01-29T20:36:37.184Z,6.28
2023-01-29T20:39:07.670Z,6.34
2023-01-29T20:41:40.861Z,6.38
2023-01-29T20:44:07.663Z,6.45
2023-01-29T20:46:37.496Z,6.32
2023-01-29T20:49:08.002Z,6.50
2023-01-29T20:51:37.137Z,6.57
2023-01-29T20:54:07.581Z,6.49
2023-01-29T20:56:44.279Z,6.48
2023-01-29T20:59:07.785Z,6.50
2023-01-29T21:01:37.108Z,6.54
2023-01-29T21:04:06.988Z,6.62
2023-01-29T21:06:37.141Z,6.65
2023-01-29T21:09:07.498Z,6.71
2023-01-29T21:11:36.973Z,6.75
2023-01-29T21:14:07.005Z,6.72
2023-01-29T21:16:37.134Z,6.75
2023-01-29T21:19:08.105Z,6.80
2023-01-29T21:24:08.395Z,6.78
2023-01-29T21:26:37.351Z,6.82
2023-01-29T21:29:07.042Z,6.84
2023-01-29T21:31:37.363Z,6.91
2023-01-29T21:34:07.434Z,6.88
2023-01-29T21:36:38.125Z,6.82
2023-01-29T21:39:15.542Z,6.79
2023-01-29T21:41:46.972Z,6.91
2023-01-29T21:44:07.126Z,6.94
2023-01-29T21:46:37.124Z,6.90
2023-01-29T21:49:08.402Z,6.94
2023-01-29T21:51:36.925Z,6.88
2023-01-29T21:54:07.272Z,6.90
2023-01-29T21:56:37.142Z,6.82
2023-01-29T21:59:07.193Z,6.80
2023-01-29T22:01:38.659Z,6.88
2023-01-29T22:04:08.809Z,6.76
2023-01-29T22:06:36.970Z,6.95
2023-01-29T22:09:06.935Z,6.90
2023-01-29T22:11:37.131Z,6.89
2023-01-29T22:14:07.260Z,6.87
2023-01-29T22:16:37.293Z,6.98
2023-01-29T22:19:07.128Z,6.95
2023-01-29T22:21:36.951Z,6.96
2023-01-29T22:24:07.482Z,7.09
2023-01-29T22:26:37.118Z,6.96
2023-01-29T22:29:06.994Z,6.95
2023-01-29T22:31:38.843Z,7.00
2023-01-29T22:34:06.982Z,6.93
2023-01-29T22:36:38.017Z,6.83
2023-01-29T22:39:08.233Z,6.92
2023-01-29T22:41:37.117Z,6.88
2023-01-29T22:44:08.262Z,6.80
2023-01-29T22:46:37.871Z,6.91
2023-01-29T22:49:06.982Z,6.83
2023-01-29T22:51:37.405Z,6.91
2023-01-29T22:54:07.050Z,6.99
2023-01-29T22:56:36.952Z,7.05
2023-01-29T22:59:09.445Z,7.00
2023-01-29T23:01:37.041Z,7.01
2023-01-29T23:04:07.165Z,6.86
2023-01-29T23:06:37.352Z,6.98
2023-01-29T23:09:07.273Z,6.92
2023-01-29T23:14:08.483Z,6.94
2023-01-29T23:16:37.040Z,6.88
2023-01-29T23:19:07.127Z,6.89
2023-01-29T23:21:38.026Z,6.95
2023-01-29T23:24:08.135Z,6.89
2023-01-29T23:26:47.395Z,6.94
2023-01-29T23:29:07.656Z,6.87
2023-01-29T23:31:38.097Z,6.91
2023-01-29T23:34:07.339Z,6.90
2023-01-29T23:36:36.952Z,6.89
2023-01-29T23:39:08.127Z,6.96
2023-01-29T23:41:37.064Z,6.98
2023-01-29T23:44:07.230Z,7.06
2023-01-29T23:46:37.173Z,6.99
2023-01-29T23:49:07.593Z,6.94
2023-01-29T23:51:37.451Z,7.07
2023-01-29T23:54:08.259Z,7.03
2023-01-29T23:56:36.965Z,7.08
2023-01-29T23:59:07.078Z,7.03
